createdAt,value
2022-10-26T00:01:31.376Z,21.08
2022-10-26T00:03:59.807Z,14.85
2022-10-26T00:06:28.980Z,16.20
2022-10-26T00:08:57.674Z,16.25
2022-10-26T00:11:26.044Z,17.65
2022-10-26T00:13:54.383Z,15.85
2022-10-26T00:16:26.471Z,15.07
2022-10-26T00:18:54.883Z,18.45
2022-10-26T00:21:23.445Z,23.75
2022-10-26T00:23:51.733Z,23.90
2022-10-26T00:26:20.046Z,17.85
2022-10-26T00:28:49.110Z,17.40
2022-10-26T00:31:18.060Z,19.02
2022-10-26T00:33:46.541Z,23.25
2022-10-26T00:36:16.753Z,19.00
2022-10-26T00:38:53.340Z,16.30
2022-10-26T00:41:25.006Z,20.33
2022-10-26T00:43:54.457Z,19.95
2022-10-26T00:46:36.201Z,19.23
2022-10-26T00:51:52.346Z,16.95
2022-10-26T00:54:21.316Z,15.07
2022-10-26T00:56:51.967Z,19.90
2022-10-26T00:59:21.885Z,17.60
2022-10-26T01:01:51.615Z,20.87
2022-10-26T01:04:20.348Z,19.27
2022-10-26T01:06:49.840Z,20.13
2022-10-26T01:09:19.150Z,18.05
2022-10-26T01:11:53.868Z,19.10
2022-10-26T01:14:24.219Z,21.88
2022-10-26T01:17:37.483Z,19.67
2022-10-26T01:20:31.048Z,18.45
2022-10-26T01:23:05.361Z,23.15
2022-10-26T01:26:04.671Z,19.23
2022-10-26T01:29:03.669Z,16.70
2022-10-26T01:31:42.241Z,20.75
2022-10-26T01:34:22.455Z,22.77
2022-10-26T01:36:58.508Z,18.23
2022-10-26T01:39:39.281Z,13.43
2022-10-26T01:44:49.471Z,18.10
2022-10-26T01:47:20.881Z,18.80
2022-10-26T01:49:56.681Z,24.23
2022-10-26T01:52:25.477Z,24.27
2022-10-26T01:55:20.466Z,23.38
2022-10-26T01:57:51.923Z,19.15
2022-10-26T02:00:20.347Z,22.42
2022-10-26T02:03:02.294Z,24.00
2022-10-26T02:05:47.682Z,20.92
2022-10-26T02:08:37.710Z,23.25
2022-10-26T02:11:15.014Z,16.27
2022-10-26T02:14:16.161Z,17.00
2022-10-26T02:16:56.340Z,19.10
2022-10-26T02:19:36.951Z,17.98
2022-10-26T02:22:28.943Z,20.08
2022-10-26T02:25:01.418Z,18.58
2022-10-26T02:27:35.119Z,20.77
2022-10-26T02:30:05.525Z,18.23
2022-10-26T02:32:37.725Z,21.70
2022-10-26T02:35:06.566Z,20.02
2022-10-26T02:37:36.601Z,15.93
2022-10-26T02:40:11.965Z,17.08
2022-10-26T02:42:45.180Z,21.75
2022-10-26T02:45:18.602Z,20.65
2022-10-26T02:47:47.666Z,18.73
2022-10-26T02:50:19.440Z,18.67
2022-10-26T02:52:54.144Z,20.08
2022-10-26T02:55:35.325Z,21.67
2022-10-26T02:58:09.267Z,20.65
2022-10-26T03:00:38.397Z,16.55
2022-10-26T03:03:06.727Z,19.92
2022-10-26T03:05:36.914Z,15.45
2022-10-26T03:08:05.515Z,21.23
2022-10-26T03:10:38.079Z,19.58
2022-10-26T03:13:06.354Z,17.80
2022-10-26T03:15:34.690Z,20.27
2022-10-26T03:18:02.988Z,21.90
2022-10-26T03:20:32.023Z,22.95
2022-10-26T03:23:00.705Z,17.35
2022-10-26T03:25:29.176Z,21.15
2022-10-26T03:27:59.235Z,19.58
2022-10-26T03:30:28.303Z,16.52
2022-10-26T03:32:57.073Z,18.38
2022-10-26T03:35:25.532Z,19.10
2022-10-26T03:37:53.898Z,16.23
2022-10-26T03:40:22.154Z,18.05
2022-10-26T03:42:50.947Z,15.95
2022-10-26T03:45:19.569Z,15.93
2022-10-26T03:47:49.473Z,20.30
2022-10-26T03:50:20.848Z,19.13
2022-10-26T03:55:19.356Z,20.33
2022-10-26T03:57:47.794Z,21.85
2022-10-26T04:00:17.725Z,20.52
2022-10-26T04:02:53.719Z,25.70
2022-10-26T04:05:22.302Z,23.13
2022-10-26T04:07:58.321Z,20.58
2022-10-26T04:10:27.827Z,24.20
2022-10-26T04:12:56.514Z,21.25
2022-10-26T04:15:24.813Z,27.38
2022-10-26T04:17:58.542Z,26.08
2022-10-26T04:20:28.526Z,26.60
2022-10-26T04:23:05.225Z,25.50
2022-10-26T04:25:34.715Z,24.48
2022-10-26T04:28:05.343Z,21.15
2022-10-26T04:30:35.331Z,26.77
2022-10-26T04:33:04.730Z,26.25
2022-10-26T04:35:34.965Z,26.45
2022-10-26T04:38:05.906Z,36.30
2022-10-26T04:40:35.433Z,26.90
2022-10-26T04:43:03.764Z,24.35
2022-10-26T04:45:32.487Z,28.23
2022-10-26T04:48:10.257Z,25.35
2022-10-26T04:50:39.717Z,24.88
2022-10-26T04:53:09.635Z,22.08
2022-10-26T04:55:38.019Z,20.73
2022-10-26T04:58:08.136Z,30.55
2022-10-26T05:00:36.427Z,37.33
2022-10-26T05:03:08.043Z,27.63
2022-10-26T05:05:37.798Z,24.13
2022-10-26T05:08:06.768Z,26.73
2022-10-26T05:10:35.173Z,24.63
2022-10-26T05:13:03.515Z,27.73
2022-10-26T05:15:32.052Z,26.52
2022-10-26T05:18:03.519Z,26.67
2022-10-26T05:20:34.259Z,25.05
2022-10-26T05:25:35.118Z,24.25
2022-10-26T05:28:06.339Z,28.88
2022-10-26T05:30:35.301Z,28.13
2022-10-26T05:33:03.851Z,30.05
2022-10-26T05:35:32.933Z,24.77
2022-10-26T05:38:07.332Z,26.25
2022-10-26T05:40:36.022Z,27.92
2022-10-26T05:43:04.826Z,33.35
2022-10-26T05:45:33.091Z,29.45
2022-10-26T05:48:02.787Z,26.02
2022-10-26T05:50:31.552Z,27.38
2022-10-26T05:53:00.519Z,29.40
2022-10-26T05:55:31.039Z,27.88
2022-10-26T05:58:01.271Z,22.13
2022-10-26T06:00:33.297Z,22.25
2022-10-26T06:03:04.418Z,21.88
2022-10-26T06:05:45.398Z,24.15
2022-10-26T06:08:13.914Z,21.95
2022-10-26T06:10:42.389Z,19.92
2022-10-26T06:13:10.992Z,22.30
2022-10-26T06:15:48.692Z,26.42
2022-10-26T06:18:35.272Z,23.02
2022-10-26T06:21:22.567Z,23.35
2022-10-26T06:24:00.111Z,20.88
2022-10-26T06:27:15.763Z,24.90
2022-10-26T06:29:49.946Z,22.08
2022-10-26T06:32:18.461Z,22.25
2022-10-26T06:34:49.734Z,25.48
2022-10-26T06:37:18.632Z,27.77
2022-10-26T06:39:53.927Z,23.48
2022-10-26T06:42:23.566Z,19.00
2022-10-26T06:44:52.746Z,23.63
2022-10-26T06:47:31.904Z,17.63
2022-10-26T06:50:28.192Z,18.65
2022-10-26T06:53:11.468Z,18.80
2022-10-26T06:55:45.511Z,19.83
2022-10-26T06:58:20.977Z,17.10
2022-10-26T07:00:52.247Z,18.90
2022-10-26T07:03:20.933Z,18.08
2022-10-26T07:05:49.895Z,15.25
2022-10-26T07:08:18.679Z,16.27
2022-10-26T07:10:53.009Z,17.02
2022-10-26T07:13:21.447Z,13.13
2022-10-26T07:15:49.753Z,15.38
2022-10-26T07:18:18.340Z,15.45
2022-10-26T07:20:46.769Z,14.38
2022-10-26T07:23:15.983Z,17.30
2022-10-26T07:25:44.223Z,16.83
2022-10-26T07:28:12.947Z,13.10
2022-10-26T07:30:41.380Z,17.67
2022-10-26T07:33:12.444Z,13.60
2022-10-26T07:35:41.280Z,12.73
2022-10-26T07:38:09.881Z,16.05
2022-10-26T07:40:38.260Z,11.70
2022-10-26T07:43:06.749Z,14.07
2022-10-26T07:45:36.755Z,10.52
2022-10-26T07:48:05.186Z,10.93
2022-10-26T07:50:34.914Z,10.15
2022-10-26T07:53:03.345Z,16.43
2022-10-26T07:55:31.568Z,11.68
2022-10-26T07:58:00.190Z,13.50
2022-10-26T08:00:29.998Z,14.00
2022-10-26T08:02:58.306Z,14.18
2022-10-26T08:05:26.844Z,12.82
2022-10-26T08:07:55.216Z,12.55
2022-10-26T08:10:23.963Z,17.35
2022-10-26T08:12:53.246Z,13.95
2022-10-26T08:15:21.585Z,11.05
2022-10-26T08:17:50.177Z,10.45
2022-10-26T08:20:18.994Z,16.02
2022-10-26T08:22:47.772Z,11.15
2022-10-26T08:25:18.945Z,12.88
2022-10-26T08:27:50.129Z,10.68
2022-10-26T08:30:18.705Z,20.35
2022-10-26T08:32:47.335Z,9.25
2022-10-26T08:35:16.050Z,8.48
2022-10-26T08:37:44.331Z,11.13
2022-10-26T08:40:17.023Z,10.57
2022-10-26T08:42:50.456Z,12.85
2022-10-26T08:45:36.843Z,12.15
2022-10-26T08:48:13.783Z,12.38
2022-10-26T08:50:49.601Z,8.73
2022-10-26T08:53:53.480Z,13.10
2022-10-26T08:56:47.285Z,13.57
2022-10-26T08:59:43.629Z,12.82
2022-10-26T09:02:17.075Z,12.85
2022-10-26T09:04:45.693Z,12.10
2022-10-26T09:07:29.247Z,10.55
2022-10-26T09:10:14.906Z,13.48
2022-10-26T09:13:03.356Z,7.53
2022-10-26T09:16:05.640Z,8.50
2022-10-26T09:18:43.073Z,7.60
2022-10-26T09:21:27.465Z,9.32
2022-10-26T09:24:03.908Z,7.50
2022-10-26T09:26:35.734Z,11.40
2022-10-26T09:29:11.142Z,7.90
2022-10-26T09:31:43.429Z,5.60
2022-10-26T09:34:23.126Z,8.98
2022-10-26T09:36:55.658Z,6.78
2022-10-26T09:39:43.378Z,8.23
2022-10-26T09:42:22.703Z,10.10
2022-10-26T09:45:13.302Z,4.88
2022-10-26T09:47:49.869Z,7.65
2022-10-26T09:50:26.435Z,7.18
2022-10-26T09:52:54.753Z,5.22
2022-10-26T09:55:23.864Z,7.82
2022-10-26T09:57:56.189Z,6.13
2022-10-26T10:00:26.219Z,5.70
2022-10-26T10:02:58.882Z,4.43
2022-10-26T10:05:50.324Z,4.53
2022-10-26T10:08:22.100Z,6.90
2022-10-26T10:11:05.783Z,6.60
2022-10-26T10:13:36.999Z,3.38
2022-10-26T10:16:22.137Z,5.65
2022-10-26T10:18:58.277Z,4.65
2022-10-26T10:21:48.580Z,5.22
2022-10-26T10:24:33.876Z,6.50
2022-10-26T10:27:18.460Z,3.92
2022-10-26T10:29:48.064Z,7.35
2022-10-26T10:32:28.628Z,7.40
2022-10-26T10:34:58.999Z,4.28
2022-10-26T10:37:46.070Z,6.75
2022-10-26T10:40:20.771Z,5.32
2022-10-26T10:42:55.558Z,5.78
2022-10-26T10:45:26.752Z,6.28
2022-10-26T10:48:13.367Z,7.03
2022-10-26T10:51:13.065Z,3.92
2022-10-26T10:53:51.781Z,4.60
2022-10-26T10:56:48.970Z,2.95
2022-10-26T10:59:38.927Z,9.10
2022-10-26T11:02:13.616Z,5.28
2022-10-26T11:05:03.405Z,6.45
2022-10-26T11:07:45.011Z,4.22
2022-10-26T11:10:17.841Z,6.38
2022-10-26T11:12:58.767Z,8.23
2022-10-26T11:15:32.140Z,3.83
2022-10-26T11:18:11.605Z,4.63
2022-10-26T11:20:47.821Z,4.20
2022-10-26T11:24:11.475Z,4.75
2022-10-26T11:26:46.355Z,4.65
2022-10-26T11:29:26.128Z,7.13
2022-10-26T11:32:01.684Z,3.70
2022-10-26T11:34:38.053Z,4.75
2022-10-26T11:40:12.271Z,5.65
2022-10-26T11:42:49.274Z,4.50
2022-10-26T11:45:23.575Z,6.35
2022-10-26T11:47:59.735Z,7.35
2022-10-26T11:50:36.696Z,6.97
2022-10-26T11:53:14.895Z,4.47
2022-10-26T11:58:26.777Z,8.70
2022-10-26T12:00:57.991Z,4.40
2022-10-26T12:03:32.754Z,6.78
2022-10-26T12:06:01.453Z,6.28
2022-10-26T12:08:38.919Z,5.18
2022-10-26T12:11:22.313Z,4.22
2022-10-26T12:13:52.563Z,7.47
2022-10-26T12:16:43.214Z,6.53
2022-10-26T12:19:32.121Z,7.28
2022-10-26T12:22:01.027Z,7.82
2022-10-26T12:24:35.557Z,6.20
2022-10-26T12:27:06.459Z,5.82
2022-10-26T12:29:46.634Z,6.55
2022-10-26T12:32:33.613Z,4.50
2022-10-26T12:35:43.763Z,5.78
2022-10-26T12:38:24.258Z,5.43
2022-10-26T12:43:39.997Z,6.10
2022-10-26T12:46:14.776Z,4.15
2022-10-26T12:48:50.812Z,5.32
2022-10-26T12:51:22.514Z,4.63
2022-10-26T12:54:35.872Z,5.63
2022-10-26T12:57:29.141Z,5.25
2022-10-26T13:00:14.876Z,5.20
2022-10-26T13:03:01.096Z,8.90
2022-10-26T13:06:04.114Z,11.23
2022-10-26T13:08:42.202Z,5.97
2022-10-26T13:11:21.276Z,3.95
2022-10-26T13:13:55.840Z,4.03
2022-10-26T13:16:27.083Z,5.90
2022-10-26T13:18:56.749Z,7.47
2022-10-26T13:21:26.216Z,5.57
2022-10-26T13:23:54.900Z,7.35
2022-10-26T13:26:28.601Z,7.47
2022-10-26T13:29:00.391Z,6.15
2022-10-26T13:31:28.983Z,4.95
2022-10-26T13:34:11.028Z,5.05
2022-10-26T13:37:13.404Z,6.68
2022-10-26T13:39:47.376Z,3.88
2022-10-26T13:42:21.859Z,6.05
2022-10-26T13:44:59.755Z,5.43
2022-10-26T13:47:49.776Z,10.70
2022-10-26T13:50:24.772Z,12.30
2022-10-26T13:53:05.779Z,6.22
2022-10-26T13:55:45.462Z,5.18
2022-10-26T13:58:35.031Z,4.55
2022-10-26T14:01:09.562Z,8.32
2022-10-26T14:03:39.012Z,8.02
2022-10-26T14:06:32.608Z,4.43
2022-10-26T14:09:05.072Z,6.72
2022-10-26T14:11:43.052Z,6.47
2022-10-26T14:14:18.625Z,5.80
2022-10-26T14:16:50.510Z,6.93
2022-10-26T14:19:29.125Z,5.38
2022-10-26T14:21:58.535Z,9.23
2022-10-26T14:24:47.004Z,4.72
2022-10-26T14:27:22.165Z,8.10
2022-10-26T14:32:41.213Z,6.32
2022-10-26T14:35:16.366Z,7.63
2022-10-26T14:37:47.253Z,4.25
2022-10-26T14:40:21.080Z,5.45
2022-10-26T14:42:52.881Z,7.32
2022-10-26T14:45:49.312Z,4.00
2022-10-26T14:48:21.336Z,5.75
2022-10-26T14:51:06.046Z,9.57
2022-10-26T14:53:40.182Z,7.70
2022-10-26T14:56:28.866Z,10.05
2022-10-26T14:58:58.770Z,5.60
2022-10-26T15:01:33.179Z,9.80
2022-10-26T15:04:06.777Z,8.43
2022-10-26T15:06:45.516Z,5.45
2022-10-26T15:09:33.036Z,7.93
2022-10-26T15:12:04.275Z,10.20
2022-10-26T15:14:34.125Z,8.77
2022-10-26T15:17:04.018Z,6.50
2022-10-26T15:19:40.229Z,9.52
2022-10-26T15:22:22.945Z,5.03
2022-10-26T15:24:58.064Z,7.25
2022-10-26T15:27:29.549Z,8.77
2022-10-26T15:30:24.552Z,9.02
2022-10-26T15:32:55.242Z,5.03
2022-10-26T15:35:32.069Z,8.73
2022-10-26T15:38:01.316Z,10.35
2022-10-26T15:40:31.595Z,9.70
2022-10-26T15:43:00.975Z,6.53
2022-10-26T15:45:36.145Z,10.52
2022-10-26T15:48:21.495Z,9.25
2022-10-26T15:50:50.453Z,9.13
2022-10-26T15:53:27.591Z,9.65
2022-10-26T15:55:59.415Z,10.20
2022-10-26T15:58:31.525Z,11.95
2022-10-26T16:01:00.041Z,10.13
2022-10-26T16:03:28.943Z,9.70
2022-10-26T16:06:01.043Z,7.88
2022-10-26T16:08:32.376Z,9.13
2022-10-26T16:11:01.589Z,9.90
2022-10-26T16:13:30.666Z,9.13
2022-10-26T16:15:58.934Z,9.13
2022-10-26T16:18:27.345Z,6.93
2022-10-26T16:20:55.918Z,8.05
2022-10-26T16:23:24.172Z,8.55
2022-10-26T16:25:52.450Z,8.30
2022-10-26T16:28:21.464Z,7.57
2022-10-26T16:30:49.730Z,9.25
2022-10-26T16:33:19.464Z,9.98
2022-10-26T16:35:57.144Z,7.75
2022-10-26T16:38:26.730Z,7.57
2022-10-26T16:41:21.109Z,8.55
2022-10-26T16:43:49.908Z,9.13
2022-10-26T16:46:20.612Z,8.70
2022-10-26T16:51:23.491Z,7.10
2022-10-26T16:53:53.813Z,10.20
2022-10-26T16:56:25.204Z,14.50
2022-10-26T16:58:53.963Z,6.93
2022-10-26T17:01:22.733Z,8.48
2022-10-26T17:03:53.049Z,7.47
2022-10-26T17:06:21.612Z,9.68
2022-10-26T17:08:50.102Z,11.98
2022-10-26T17:11:20.507Z,13.25
2022-10-26T17:13:55.730Z,8.57
2022-10-26T17:16:24.948Z,10.20
2022-10-26T17:18:54.286Z,12.05
2022-10-26T17:21:37.315Z,12.00
2022-10-26T17:24:06.916Z,10.93
2022-10-26T17:26:35.684Z,8.33
2022-10-26T17:29:04.275Z,7.90
2022-10-26T17:31:33.266Z,9.23
2022-10-26T17:34:02.286Z,8.98
2022-10-26T17:36:31.670Z,10.00
2022-10-26T17:39:00.982Z,12.18
2022-10-26T17:41:29.449Z,11.48
2022-10-26T17:43:57.711Z,10.45
2022-10-26T17:46:26.864Z,8.25
2022-10-26T17:48:59.847Z,7.80
2022-10-26T17:51:29.909Z,8.25
2022-10-26T17:53:59.344Z,8.10
2022-10-26T17:56:30.686Z,8.63
2022-10-26T17:59:12.394Z,7.88
2022-10-26T18:01:41.226Z,9.93
2022-10-26T18:04:09.584Z,8.77
2022-10-26T18:06:37.826Z,7.32
2022-10-26T18:09:06.405Z,9.75
2022-10-26T18:11:34.712Z,7.05
2022-10-26T18:14:04.486Z,7.93
2022-10-26T18:16:34.869Z,9.60
2022-10-26T18:19:04.740Z,6.57
2022-10-26T18:21:37.489Z,7.20
2022-10-26T18:24:07.400Z,8.73
2022-10-26T18:26:36.251Z,11.52
2022-10-26T18:29:05.455Z,7.82
2022-10-26T18:31:37.153Z,10.07
2022-10-26T18:34:07.001Z,8.35
2022-10-26T18:39:07.337Z,10.75
2022-10-26T18:41:35.641Z,10.15
2022-10-26T18:44:04.227Z,9.50
2022-10-26T18:46:39.357Z,8.82
2022-10-26T18:49:09.480Z,12.60
2022-10-26T18:51:37.816Z,9.45
2022-10-26T18:54:06.135Z,5.72
2022-10-26T18:56:34.619Z,12.77
2022-10-26T18:59:03.017Z,8.20
2022-10-26T19:01:34.505Z,8.85
2022-10-26T19:04:07.490Z,7.50
2022-10-26T19:06:49.545Z,11.02
2022-10-26T19:09:19.198Z,14.70
2022-10-26T19:11:47.713Z,8.35
2022-10-26T19:14:16.068Z,12.70
2022-10-26T19:16:46.358Z,7.80
2022-10-26T19:19:17.014Z,9.25
2022-10-26T19:21:47.093Z,10.23
2022-10-26T19:24:19.362Z,10.50
2022-10-26T19:26:50.335Z,16.45
2022-10-26T19:29:19.218Z,12.05
2022-10-26T19:31:52.019Z,10.57
2022-10-26T19:34:20.607Z,9.50
2022-10-26T19:36:49.085Z,8.55
2022-10-26T19:39:18.113Z,10.73
2022-10-26T19:41:46.799Z,10.63
2022-10-26T19:44:20.706Z,14.05
2022-10-26T19:46:50.810Z,13.38
2022-10-26T19:49:20.894Z,12.93
2022-10-26T19:51:49.390Z,8.95
2022-10-26T19:54:17.894Z,12.85
2022-10-26T19:56:46.652Z,9.32
2022-10-26T19:59:15.114Z,9.93
2022-10-26T20:01:43.531Z,12.27
2022-10-26T20:04:12.047Z,13.13
2022-10-26T20:06:43.947Z,11.15
2022-10-26T20:09:13.682Z,11.70
2022-10-26T20:11:43.130Z,11.75
2022-10-26T20:14:13.725Z,15.23
2022-10-26T20:16:42.258Z,10.70
2022-10-26T20:19:11.200Z,10.55
2022-10-26T20:21:39.612Z,13.85
2022-10-26T20:24:12.318Z,12.68
2022-10-26T20:26:41.241Z,9.68
2022-10-26T20:29:10.114Z,10.90
2022-10-26T20:31:40.594Z,19.88
2022-10-26T20:34:09.114Z,13.60
2022-10-26T20:36:37.848Z,13.88
2022-10-26T20:39:06.417Z,15.38
2022-10-26T20:41:41.571Z,13.15
2022-10-26T20:44:18.890Z,15.02
2022-10-26T20:46:47.690Z,13.48
2022-10-26T20:49:16.741Z,12.02
2022-10-26T20:52:20.065Z,16.02
2022-10-26T20:55:04.096Z,12.43
2022-10-26T20:57:35.200Z,16.77
2022-10-26T21:00:10.926Z,13.95
2022-10-26T21:02:39.792Z,12.27
2022-10-26T21:05:08.235Z,13.38
2022-10-26T21:07:36.535Z,15.00
2022-10-26T21:10:06.222Z,14.45
2022-10-26T21:12:34.543Z,14.73
2022-10-26T21:15:02.903Z,13.70
2022-10-26T21:17:34.459Z,16.13
2022-10-26T21:20:03.096Z,11.10
2022-10-26T21:22:31.392Z,12.48
2022-10-26T21:24:59.681Z,15.05
2022-10-26T21:27:30.314Z,14.38
2022-10-26T21:32:27.853Z,17.08
2022-10-26T21:34:56.194Z,17.95
2022-10-26T21:37:27.728Z,16.92
2022-10-26T21:39:56.854Z,16.15
2022-10-26T21:42:25.141Z,12.48
2022-10-26T21:44:53.365Z,16.42
2022-10-26T21:47:22.083Z,14.88
2022-10-26T21:49:50.371Z,13.65
2022-10-26T21:52:18.703Z,15.02
2022-10-26T21:54:47.050Z,16.98
2022-10-26T21:57:16.525Z,20.90
2022-10-26T21:59:45.808Z,13.02
2022-10-26T22:02:14.133Z,19.13
2022-10-26T22:04:42.468Z,12.68
2022-10-26T22:07:11.068Z,12.10
2022-10-26T22:09:49.497Z,13.13
2022-10-26T22:12:28.588Z,11.13
2022-10-26T22:14:56.816Z,20.17
2022-10-26T22:17:25.173Z,13.20
2022-10-26T22:19:53.415Z,16.65
2022-10-26T22:22:21.941Z,19.58
2022-10-26T22:24:51.338Z,16.73
2022-10-26T22:27:20.248Z,14.75
2022-10-26T22:29:49.748Z,20.27
2022-10-26T22:32:18.054Z,17.15
2022-10-26T22:35:00.256Z,14.07
2022-10-26T22:37:39.011Z,13.48
2022-10-26T22:40:08.212Z,14.90
2022-10-26T22:42:36.471Z,14.75
2022-10-26T22:45:05.458Z,12.82
2022-10-26T22:47:34.965Z,12.93
2022-10-26T22:50:03.602Z,15.40
2022-10-26T22:52:31.863Z,16.27
2022-10-26T22:55:00.434Z,14.30
2022-10-26T22:57:28.986Z,18.10
2022-10-26T22:59:58.278Z,15.40
2022-10-26T23:02:26.687Z,13.57
2022-10-26T23:04:55.111Z,10.35
2022-10-26T23:07:26.121Z,16.50
2022-10-26T23:09:54.524Z,9.90
2022-10-26T23:12:22.969Z,13.43
2022-10-26T23:14:51.229Z,11.02
2022-10-26T23:17:19.481Z,12.90
2022-10-26T23:19:48.218Z,18.02
2022-10-26T23:22:16.531Z,12.25
2022-10-26T23:24:44.857Z,13.15
2022-10-26T23:27:13.088Z,13.60
2022-10-26T23:29:41.453Z,10.75
2022-10-26T23:32:09.878Z,12.55
2022-10-26T23:34:38.489Z,10.02
2022-10-26T23:37:06.727Z,13.05
2022-10-26T23:39:35.118Z,18.33
2022-10-26T23:42:03.699Z,12.43
2022-10-26T23:44:32.373Z,13.77
2022-10-26T23:47:00.628Z,13.80
2022-10-26T23:49:28.873Z,11.63
2022-10-26T23:51:57.367Z,15.05
2022-10-26T23:54:26.760Z,15.80
2022-10-26T23:56:55.073Z,11.70
2022-10-26T23:59:23.357Z,13.63
